Weather at H 264 Heliport

Public forecast

Using degrees Celsius for public forecast. Weather courtesy of forecast.io.

Closest aviation weather report (METAR) to H 264 Heliport

Closest report is Seoul Air Base (K-16), 8.2 nm (15.2 km) SE.

2022/12/02 23:00 (retrieved 58 minutes ago)

RKSM 022300Z 03001KT 8000 -SN BR SCT015 BKN030 M00/M03 A3029

Closest aviation forecast (TAF) to H 264 Heliport

Closest forecast is Seoul Air Base (K-16), 8.2 nm (15.2 km) SE.

2022/12/02 18:43 (retrieved 5 hours ago)

TAF RKSM 021700Z 0218/0324 21006KT 9999 BKN040 BECMG 0220/0221 24006KT 4800 -SN BR SCT020 BKN040 BECMG 0302/0303 27006KT 9999 NSW BKN030 BKN150 TN02/0221Z TX06/0306Z